sensor_id;sensor_type;location;lat;lon;timestamp;pressure;altitude;pressure_sealevel;temperature;humidity
64292;BME280;50628;51.008;13.658;2023-05-03T00:00:29;100717.03;;;9.75;100.00
64292;BME280;50628;51.008;13.658;2023-05-03T00:05:32;100722.50;;;9.85;100.00
64292;BME280;50628;51.008;13.658;2023-05-03T00:10:35;100725.00;;;9.87;100.00
64292;BME280;50628;51.008;13.658;2023-05-03T00:15:37;100724.03;;;10.02;100.00
64292;BME280;50628;51.008;13.658;2023-05-03T00:20:38;100732.53;;;9.91;100.00
64292;BME280;50628;51.008;13.658;2023-05-03T00:25:42;100726.31;;;9.37;100.00
64292;BME280;50628;51.008;13.658;2023-05-03T00:30:44;100726.88;;;9.42;100.00
64292;BME280;50628;51.008;13.658;2023-05-03T00:35:45;100721.22;;;9.35;100.00
64292;BME280;50628;51.008;13.658;2023-05-03T00:40:53;100717.22;;;9.29;100.00
64292;BME280;50628;51.008;13.658;2023-05-03T00:45:55;100730.31;;;9.28;100.00
64292;BME280;50628;51.008;13.658;2023-05-03T00:50:58;100720.72;;;9.14;100.00
64292;BME280;50628;51.008;13.658;2023-05-03T00:56:02;100727.44;;;9.32;100.00
64292;BME280;50628;51.008;13.658;2023-05-03T01:01:05;100727.69;;;9.14;100.00
64292;BME280;50628;51.008;13.658;2023-05-03T01:06:14;100731.78;;;9.32;100.00
64292;BME280;50628;51.008;13.658;2023-05-03T01:11:22;100731.75;;;9.03;100.00
64292;BME280;50628;51.008;13.658;2023-05-03T01:16:31;100733.25;;;9.07;100.00
64292;BME280;50628;51.008;13.658;2023-05-03T01:21:36;100724.41;;;8.96;100.00
64292;BME280;50628;51.008;13.658;2023-05-03T01:26:40;100723.50;;;9.11;100.00
64292;BME280;50628;51.008;13.658;2023-05-03T01:31:45;100724.41;;;8.96;100.00
64292;BME280;50628;51.008;13.658;2023-05-03T01:36:53;100725.63;;;9.04;100.00
64292;BME280;50628;51.008;13.658;2023-05-03T01:41:58;100737.44;;;8.80;100.00
64292;BME280;50628;51.008;13.658;2023-05-03T01:47:01;100732.84;;;8.69;100.00
64292;BME280;50628;51.008;13.658;2023-05-03T01:52:03;100725.38;;;8.79;100.00
64292;BME280;50628;51.008;13.658;2023-05-03T01:57:07;100734.78;;;8.65;100.00
64292;BME280;50628;51.008;13.658;2023-05-03T02:02:09;100728.78;;;8.79;100.00
64292;BME280;50628;51.008;13.658;2023-05-03T02:07:10;100727.69;;;8.83;100.00
64292;BME280;50628;51.008;13.658;2023-05-03T02:12:14;100724.59;;;8.47;100.00
64292;BME280;50628;51.008;13.658;2023-05-03T02:17:16;100731.22;;;8.52;100.00
64292;BME280;50628;51.008;13.658;2023-05-03T02:22:18;100727.50;;;8.56;100.00
64292;BME280;50628;51.008;13.658;2023-05-03T02:27:23;100723.22;;;8.71;100.00
64292;BME280;50628;51.008;13.658;2023-05-03T02:32:25;100716.19;;;8.73;100.00
64292;BME280;50628;51.008;13.658;2023-05-03T02:37:27;100727.31;;;8.75;100.00
64292;BME280;50628;51.008;13.658;2023-05-03T02:42:30;100730.59;;;8.63;100.00
64292;BME280;50628;51.008;13.658;2023-05-03T02:47:33;100737.97;;;8.39;100.00
64292;BME280;50628;51.008;13.658;2023-05-03T02:52:35;100743.00;;;8.10;100.00
64292;BME280;50628;51.008;13.658;2023-05-03T02:57:38;100736.75;;;8.14;100.00
64292;BME280;50628;51.008;13.658;2023-05-03T03:02:41;100741.94;;;8.14;100.00
64292;BME280;50628;51.008;13.658;2023-05-03T03:07:43;100751.22;;;8.34;100.00
64292;BME280;50628;51.008;13.658;2023-05-03T03:12:46;100756.78;;;7.95;100.00
64292;BME280;50628;51.008;13.658;2023-05-03T03:17:57;100763.03;;;7.91;100.00
64292;BME280;50628;51.008;13.658;2023-05-03T03:23:00;100769.16;;;7.90;100.00
64292;BME280;50628;51.008;13.658;2023-05-03T03:28:04;100771.19;;;8.16;100.00
64292;BME280;50628;51.008;13.658;2023-05-03T03:33:06;100777.59;;;7.93;100.00
64292;BME280;50628;51.008;13.658;2023-05-03T03:38:13;100770.28;;;8.01;100.00
64292;BME280;50628;51.008;13.658;2023-05-03T03:43:24;100776.78;;;8.09;100.00
64292;BME280;50628;51.008;13.658;2023-05-03T03:48:26;100781.53;;;8.00;100.00
64292;BME280;50628;51.008;13.658;2023-05-03T03:53:28;100784.72;;;8.06;100.00
64292;BME280;50628;51.008;13.658;2023-05-03T03:58:32;100786.66;;;8.02;100.00
64292;BME280;50628;51.008;13.658;2023-05-03T04:03:35;100791.25;;;7.97;100.00
64292;BME280;50628;51.008;13.658;2023-05-03T04:08:37;100802.13;;;8.03;100.00
64292;BME280;50628;51.008;13.658;2023-05-03T04:13:41;100804.81;;;8.02;100.00
64292;BME280;50628;51.008;13.658;2023-05-03T04:18:44;100818.25;;;8.09;100.00
64292;BME280;50628;51.008;13.658;2023-05-03T04:23:46;100821.84;;;8.06;100.00
64292;BME280;50628;51.008;13.658;2023-05-03T04:28:52;100828.97;;;8.02;100.00
64292;BME280;50628;51.008;13.658;2023-05-03T04:33:55;100837.91;;;7.97;100.00
64292;BME280;50628;51.008;13.658;2023-05-03T04:38:59;100843.13;;;8.13;100.00
64292;BME280;50628;51.008;13.658;2023-05-03T04:44:04;100850.72;;;8.00;100.00
64292;BME280;50628;51.008;13.658;2023-05-03T04:49:06;100852.72;;;7.95;100.00
64292;BME280;50628;51.008;13.658;2023-05-03T04:54:08;100851.56;;;7.83;100.00
64292;BME280;50628;51.008;13.658;2023-05-03T04:59:12;100857.50;;;8.02;100.00
64292;BME280;50628;51.008;13.658;2023-05-03T05:04:14;100846.34;;;8.00;100.00
64292;BME280;50628;51.008;13.658;2023-05-03T05:09:22;100857.28;;;8.23;100.00
64292;BME280;50628;51.008;13.658;2023-05-03T05:14:29;100864.78;;;8.45;100.00
64292;BME280;50628;51.008;13.658;2023-05-03T05:19:32;100865.97;;;8.39;100.00
64292;BME280;50628;51.008;13.658;2023-05-03T05:24:35;100882.13;;;8.60;100.00
64292;BME280;50628;51.008;13.658;2023-05-03T05:29:38;100883.44;;;8.18;100.00
64292;BME280;50628;51.008;13.658;2023-05-03T05:34:40;100886.16;;;8.50;100.00
64292;BME280;50628;51.008;13.658;2023-05-03T05:39:43;100887.44;;;8.41;100.00
64292;BME280;50628;51.008;13.658;2023-05-03T05:44:48;100889.63;;;8.16;100.00
64292;BME280;50628;51.008;13.658;2023-05-03T05:49:56;100898.00;;;8.21;100.00
64292;BME280;50628;51.008;13.658;2023-05-03T05:54:58;100891.81;;;7.90;100.00
64292;BME280;50628;51.008;13.658;2023-05-03T06:00:02;100893.13;;;7.99;100.00
64292;BME280;50628;51.008;13.658;2023-05-03T06:05:14;100892.03;;;8.36;100.00
64292;BME280;50628;51.008;13.658;2023-05-03T06:10:22;100903.19;;;8.21;100.00
64292;BME280;50628;51.008;13.658;2023-05-03T06:15:28;100904.88;;;8.39;100.00
64292;BME280;50628;51.008;13.658;2023-05-03T06:20:33;100908.72;;;8.48;100.00
64292;BME280;50628;51.008;13.658;2023-05-03T06:25:35;100911.88;;;8.04;100.00
64292;BME280;50628;51.008;13.658;2023-05-03T06:30:49;100905.19;;;8.49;97.78
64292;BME280;50628;51.008;13.658;2023-05-03T06:35:51;100908.06;;;8.44;98.75
64292;BME280;50628;51.008;13.658;2023-05-03T06:40:53;100907.72;;;8.51;96.98
64292;BME280;50628;51.008;13.658;2023-05-03T06:45:57;100904.91;;;8.55;96.58
64292;BME280;50628;51.008;13.658;2023-05-03T06:50:59;100914.63;;;8.83;93.38
64292;BME280;50628;51.008;13.658;2023-05-03T06:56:00;100909.50;;;8.66;95.11
64292;BME280;50628;51.008;13.658;2023-05-03T07:01:04;100910.59;;;8.78;93.12
64292;BME280;50628;51.008;13.658;2023-05-03T07:06:06;100906.56;;;9.20;87.88
64292;BME280;50628;51.008;13.658;2023-05-03T07:11:17;100906.47;;;9.21;90.08
64292;BME280;50628;51.008;13.658;2023-05-03T07:16:35;100905.91;;;9.00;88.22
64292;BME280;50628;51.008;13.658;2023-05-03T07:21:37;100907.06;;;9.10;80.60
64292;BME280;50628;51.008;13.658;2023-05-03T07:26:42;100901.59;;;9.31;77.52
64292;BME280;50628;51.008;13.658;2023-05-03T07:31:51;100890.75;;;9.39;78.24
64292;BME280;50628;51.008;13.658;2023-05-03T07:36:53;100899.25;;;9.26;77.43
64292;BME280;50628;51.008;13.658;2023-05-03T07:41:55;100894.63;;;9.62;81.97
64292;BME280;50628;51.008;13.658;2023-05-03T07:47:01;100892.28;;;9.57;81.32
64292;BME280;50628;51.008;13.658;2023-05-03T07:52:03;100887.72;;;9.91;79.31
64292;BME280;50628;51.008;13.658;2023-05-03T07:57:05;100883.25;;;9.79;76.95
64292;BME280;50628;51.008;13.658;2023-05-03T08:02:09;100883.34;;;9.91;74.50
64292;BME280;50628;51.008;13.658;2023-05-03T08:07:10;100885.22;;;10.04;73.79
64292;BME280;50628;51.008;13.658;2023-05-03T08:12:16;100885.59;;;10.12;72.51
64292;BME280;50628;51.008;13.658;2023-05-03T08:17:20;100882.53;;;9.91;73.72
64292;BME280;50628;51.008;13.658;2023-05-03T08:22:22;100890.69;;;9.99;75.50
64292;BME280;50628;51.008;13.658;2023-05-03T08:27:27;100878.28;;;10.33;71.89
64292;BME280;50628;51.008;13.658;2023-05-03T08:32:31;100879.00;;;10.21;70.37
64292;BME280;50628;51.008;13.658;2023-05-03T08:37:37;100885.31;;;10.02;71.88
64292;BME280;50628;51.008;13.658;2023-05-03T08:42:40;100879.44;;;10.13;70.85
64292;BME280;50628;51.008;13.658;2023-05-03T08:47:44;100886.44;;;10.55;71.39
64292;BME280;50628;51.008;13.658;2023-05-03T08:52:49;100885.56;;;10.69;70.96
64292;BME280;50628;51.008;13.658;2023-05-03T08:57:51;100885.88;;;10.65;69.24
64292;BME280;50628;51.008;13.658;2023-05-03T09:03:03;100885.16;;;10.34;70.81
64292;BME280;50628;51.008;13.658;2023-05-03T09:08:09;100883.00;;;10.55;71.05
64292;BME280;50628;51.008;13.658;2023-05-03T09:13:14;100879.81;;;11.18;69.92
64292;BME280;50628;51.008;13.658;2023-05-03T09:18:18;100884.78;;;11.09;68.66
64292;BME280;50628;51.008;13.658;2023-05-03T09:23:31;100875.78;;;10.73;67.75
64292;BME280;50628;51.008;13.658;2023-05-03T09:28:40;100876.56;;;10.60;64.78
64292;BME280;50628;51.008;13.658;2023-05-03T09:33:43;100883.91;;;10.95;66.50
64292;BME280;50628;51.008;13.658;2023-05-03T09:38:48;100882.22;;;10.67;67.91
64292;BME280;50628;51.008;13.658;2023-05-03T09:43:51;100886.06;;;11.16;64.68
64292;BME280;50628;51.008;13.658;2023-05-03T09:48:56;100874.59;;;11.58;59.40
64292;BME280;50628;51.008;13.658;2023-05-03T09:53:58;100867.28;;;11.51;62.26
64292;BME280;50628;51.008;13.658;2023-05-03T09:59:08;100871.59;;;11.12;66.44
64292;BME280;50628;51.008;13.658;2023-05-03T10:04:14;100867.63;;;10.65;66.36
64292;BME280;50628;51.008;13.658;2023-05-03T10:09:22;100860.00;;;11.16;65.47
64292;BME280;50628;51.008;13.658;2023-05-03T10:14:28;100855.44;;;11.59;62.22
64292;BME280;50628;51.008;13.658;2023-05-03T10:19:34;100843.72;;;11.39;61.50
64292;BME280;50628;51.008;13.658;2023-05-03T10:25:07;100848.56;;;11.97;62.01
64292;BME280;50628;51.008;13.658;2023-05-03T10:30:26;100842.06;;;12.28;62.64
64292;BME280;50628;51.008;13.658;2023-05-03T10:35:40;100844.28;;;11.96;63.86
64292;BME280;50628;51.008;13.658;2023-05-03T10:40:48;100841.06;;;12.05;62.16
64292;BME280;50628;51.008;13.658;2023-05-03T10:45:55;100843.78;;;12.53;61.08
64292;BME280;50628;51.008;13.658;2023-05-03T10:51:31;100833.72;;;12.84;61.47
64292;BME280;50628;51.008;13.658;2023-05-03T10:56:47;100850.63;;;12.30;61.22
64292;BME280;50628;51.008;13.658;2023-05-03T11:01:50;100833.34;;;13.12;59.55
64292;BME280;50628;51.008;13.658;2023-05-03T11:06:56;100827.22;;;13.25;58.59
64292;BME280;50628;51.008;13.658;2023-05-03T11:12:05;100836.88;;;13.00;58.29
64292;BME280;50628;51.008;13.658;2023-05-03T11:17:22;100829.50;;;14.10;56.83
64292;BME280;50628;51.008;13.658;2023-05-03T11:22:47;100827.06;;;13.50;55.37
64292;BME280;50628;51.008;13.658;2023-05-03T11:27:49;100824.75;;;13.92;54.92
64292;BME280;50628;51.008;13.658;2023-05-03T11:33:00;100825.28;;;14.75;52.08
64292;BME280;50628;51.008;13.658;2023-05-03T11:38:09;100807.94;;;15.15;50.56
64292;BME280;50628;51.008;13.658;2023-05-03T11:43:40;100814.91;;;15.05;50.41
64292;BME280;50628;51.008;13.658;2023-05-03T11:48:50;100812.41;;;15.04;50.10
64292;BME280;50628;51.008;13.658;2023-05-03T11:54:03;100807.09;;;15.36;51.13
64292;BME280;50628;51.008;13.658;2023-05-03T11:59:06;100820.25;;;15.04;52.84
64292;BME280;50628;51.008;13.658;2023-05-03T12:04:18;100830.34;;;15.41;49.91
64292;BME280;50628;51.008;13.658;2023-05-03T12:09:23;100814.28;;;16.16;47.65
64292;BME280;50628;51.008;13.658;2023-05-03T12:14:28;100802.81;;;16.87;46.64
64292;BME280;50628;51.008;13.658;2023-05-03T12:19:30;100815.34;;;16.64;45.41
64292;BME280;50628;51.008;13.658;2023-05-03T12:24:57;100794.78;;;16.79;45.58
64292;BME280;50628;51.008;13.658;2023-05-03T12:30:07;100793.78;;;16.51;47.41
64292;BME280;50628;51.008;13.658;2023-05-03T12:35:14;100796.88;;;15.75;47.66
64292;BME280;50628;51.008;13.658;2023-05-03T12:40:30;100800.28;;;16.56;45.52
64292;BME280;50628;51.008;13.658;2023-05-03T12:45:50;100786.44;;;17.22;45.16
64292;BME280;50628;51.008;13.658;2023-05-03T12:51:20;100785.47;;;16.46;46.21
64292;BME280;50628;51.008;13.658;2023-05-03T12:56:29;100768.63;;;15.98;46.61
64292;BME280;50628;51.008;13.658;2023-05-03T13:01:34;100768.59;;;15.88;47.72
64292;BME280;50628;51.008;13.658;2023-05-03T13:06:38;100768.00;;;16.35;46.88
64292;BME280;50628;51.008;13.658;2023-05-03T13:11:54;100755.53;;;17.34;43.64
64292;BME280;50628;51.008;13.658;2023-05-03T13:17:14;100752.28;;;17.60;43.99
64292;BME280;50628;51.008;13.658;2023-05-03T13:22:28;100760.44;;;16.71;45.44
64292;BME280;50628;51.008;13.658;2023-05-03T13:27:50;100741.63;;;17.51;44.90
64292;BME280;50628;51.008;13.658;2023-05-03T13:33:08;100750.78;;;16.81;45.39
64292;BME280;50628;51.008;13.658;2023-05-03T13:38:18;100735.78;;;17.11;43.88
64292;BME280;50628;51.008;13.658;2023-05-03T13:43:50;100745.25;;;16.94;45.04
64292;BME280;50628;51.008;13.658;2023-05-03T13:49:13;100732.63;;;16.97;44.37
64292;BME280;50628;51.008;13.658;2023-05-03T13:54:24;100724.22;;;18.59;42.30
64292;BME280;50628;51.008;13.658;2023-05-03T13:59:54;100719.88;;;18.14;42.22
64292;BME280;50628;51.008;13.658;2023-05-03T14:05:12;100724.47;;;18.84;41.55
64292;BME280;50628;51.008;13.658;2023-05-03T14:10:20;100708.75;;;19.00;41.31
64292;BME280;50628;51.008;13.658;2023-05-03T14:15:59;100711.44;;;19.09;40.14
64292;BME280;50628;51.008;13.658;2023-05-03T14:21:34;100714.31;;;18.35;41.75
64292;BME280;50628;51.008;13.658;2023-05-03T14:32:28;100703.06;;;19.13;39.44
64292;BME280;50628;51.008;13.658;2023-05-03T14:37:49;100697.44;;;19.08;39.84
64292;BME280;50628;51.008;13.658;2023-05-03T14:42:59;100701.63;;;18.57;39.50
64292;BME280;50628;51.008;13.658;2023-05-03T14:48:23;100694.03;;;19.93;38.49
64292;BME280;50628;51.008;13.658;2023-05-03T14:53:28;100692.81;;;18.84;39.25
64292;BME280;50628;51.008;13.658;2023-05-03T14:58:54;100699.22;;;20.19;38.58
64292;BME280;50628;51.008;13.658;2023-05-03T15:04:00;100694.06;;;19.24;38.31
64292;BME280;50628;51.008;13.658;2023-05-03T15:09:03;100696.31;;;19.87;39.03
64292;BME280;50628;51.008;13.658;2023-05-03T15:14:17;100711.69;;;19.23;39.44
64292;BME280;50628;51.008;13.658;2023-05-03T15:19:52;100695.47;;;19.71;38.85
64292;BME280;50628;51.008;13.658;2023-05-03T15:25:12;100704.09;;;19.97;38.11
64292;BME280;50628;51.008;13.658;2023-05-03T15:36:09;100691.84;;;19.11;38.91
64292;BME280;50628;51.008;13.658;2023-05-03T15:41:28;100693.63;;;19.71;38.46
64292;BME280;50628;51.008;13.658;2023-05-03T15:47:13;100676.69;;;18.69;40.30
64292;BME280;50628;51.008;13.658;2023-05-03T15:52:43;100676.84;;;17.41;41.86
64292;BME280;50628;51.008;13.658;2023-05-03T15:58:01;100678.38;;;17.06;43.11
64292;BME280;50628;51.008;13.658;2023-05-03T16:14:48;100675.56;;;15.81;45.86
64292;BME280;50628;51.008;13.658;2023-05-03T16:20:06;100665.47;;;15.76;47.17
64292;BME280;50628;51.008;13.658;2023-05-03T16:25:36;100660.00;;;15.99;47.05
64292;BME280;50628;51.008;13.658;2023-05-03T16:31:11;100640.78;;;15.98;46.74
64292;BME280;50628;51.008;13.658;2023-05-03T16:36:49;100648.16;;;15.64;47.78
64292;BME280;50628;51.008;13.658;2023-05-03T16:42:11;100627.91;;;15.76;47.99
64292;BME280;50628;51.008;13.658;2023-05-03T16:47:51;100632.47;;;15.74;47.57
64292;BME280;50628;51.008;13.658;2023-05-03T16:53:32;100630.81;;;15.73;47.56
64292;BME280;50628;51.008;13.658;2023-05-03T16:58:49;100619.78;;;15.89;47.52
64292;BME280;50628;51.008;13.658;2023-05-03T17:04:16;100622.09;;;15.82;47.72
64292;BME280;50628;51.008;13.658;2023-05-03T17:09:42;100626.47;;;15.22;48.71
64292;BME280;50628;51.008;13.658;2023-05-03T17:15:15;100636.66;;;15.15;49.09
64292;BME280;50628;51.008;13.658;2023-05-03T17:20:23;100633.34;;;15.13;49.72
64292;BME280;50628;51.008;13.658;2023-05-03T17:26:04;100638.38;;;14.74;50.58
64292;BME280;50628;51.008;13.658;2023-05-03T17:31:49;100639.13;;;14.86;50.76
64292;BME280;50628;51.008;13.658;2023-05-03T17:37:48;100634.84;;;14.85;50.94
64292;BME280;50628;51.008;13.658;2023-05-03T17:48:45;100630.75;;;14.71;51.43
64292;BME280;50628;51.008;13.658;2023-05-03T17:54:19;100627.91;;;14.74;51.72
64292;BME280;50628;51.008;13.658;2023-05-03T18:17:37;100649.22;;;14.16;55.91
64292;BME280;50628;51.008;13.658;2023-05-03T18:35:01;100663.38;;;13.70;62.45
64292;BME280;50628;51.008;13.658;2023-05-03T18:40:31;100661.81;;;13.23;65.96
64292;BME280;50628;51.008;13.658;2023-05-03T18:51:48;100670.16;;;12.70;72.24
64292;BME280;50628;51.008;13.658;2023-05-03T19:03:19;100679.97;;;12.07;84.47
64292;BME280;50628;51.008;13.658;2023-05-03T19:08:58;100680.88;;;11.95;91.18
64292;BME280;50628;51.008;13.658;2023-05-03T19:14:49;100700.19;;;11.66;96.05
64292;BME280;50628;51.008;13.658;2023-05-03T19:20:48;100700.84;;;11.57;94.50
64292;BME280;50628;51.008;13.658;2023-05-03T19:26:46;100701.28;;;11.38;93.67
64292;BME280;50628;51.008;13.658;2023-05-03T19:32:33;100695.03;;;11.28;97.45
64292;BME280;50628;51.008;13.658;2023-05-03T19:38:27;100686.59;;;11.12;100.00
64292;BME280;50628;51.008;13.658;2023-05-03T19:50:28;100690.91;;;10.73;100.00
64292;BME280;50628;51.008;13.658;2023-05-03T19:56:09;100692.19;;;10.80;100.00
64292;BME280;50628;51.008;13.658;2023-05-03T20:01:41;100693.81;;;10.68;100.00
64292;BME280;50628;51.008;13.658;2023-05-03T20:07:00;100702.00;;;10.49;100.00
64292;BME280;50628;51.008;13.658;2023-05-03T20:12:21;100705.19;;;10.40;100.00
64292;BME280;50628;51.008;13.658;2023-05-03T20:17:41;100706.53;;;10.33;100.00
64292;BME280;50628;51.008;13.658;2023-05-03T20:23:07;100700.91;;;10.12;100.00
64292;BME280;50628;51.008;13.658;2023-05-03T20:28:34;100701.94;;;9.95;100.00
64292;BME280;50628;51.008;13.658;2023-05-03T20:34:06;100702.47;;;9.73;100.00
64292;BME280;50628;51.008;13.658;2023-05-03T20:39:32;100702.09;;;9.65;100.00
64292;BME280;50628;51.008;13.658;2023-05-03T20:44:49;100696.72;;;9.53;100.00
64292;BME280;50628;51.008;13.658;2023-05-03T20:50:09;100697.66;;;9.38;100.00
64292;BME280;50628;51.008;13.658;2023-05-03T20:55:23;100701.16;;;9.23;100.00
64292;BME280;50628;51.008;13.658;2023-05-03T21:00:29;100698.19;;;9.00;100.00
64292;BME280;50628;51.008;13.658;2023-05-03T21:05:34;100701.03;;;8.96;100.00
64292;BME280;50628;51.008;13.658;2023-05-03T21:10:42;100700.78;;;8.70;100.00
64292;BME280;50628;51.008;13.658;2023-05-03T21:15:55;100703.72;;;8.64;100.00
64292;BME280;50628;51.008;13.658;2023-05-03T21:20:56;100691.53;;;8.50;100.00
64292;BME280;50628;51.008;13.658;2023-05-03T21:25:58;100698.19;;;8.24;100.00
64292;BME280;50628;51.008;13.658;2023-05-03T21:31:02;100690.28;;;8.26;100.00
64292;BME280;50628;51.008;13.658;2023-05-03T21:36:10;100688.06;;;8.19;100.00
64292;BME280;50628;51.008;13.658;2023-05-03T21:41:15;100695.56;;;8.08;100.00
64292;BME280;50628;51.008;13.658;2023-05-03T21:46:18;100696.50;;;8.07;100.00
64292;BME280;50628;51.008;13.658;2023-05-03T21:51:23;100692.91;;;7.94;100.00
64292;BME280;50628;51.008;13.658;2023-05-03T21:56:28;100690.03;;;7.98;100.00
64292;BME280;50628;51.008;13.658;2023-05-03T22:01:34;100703.84;;;7.83;100.00
64292;BME280;50628;51.008;13.658;2023-05-03T22:06:39;100697.72;;;7.68;100.00
64292;BME280;50628;51.008;13.658;2023-05-03T22:11:40;100700.31;;;7.68;100.00
64292;BME280;50628;51.008;13.658;2023-05-03T22:16:44;100698.78;;;7.48;100.00
64292;BME280;50628;51.008;13.658;2023-05-03T22:21:45;100701.75;;;7.41;100.00
64292;BME280;50628;51.008;13.658;2023-05-03T22:26:47;100702.19;;;7.15;100.00
64292;BME280;50628;51.008;13.658;2023-05-03T22:31:51;100702.34;;;7.12;100.00
64292;BME280;50628;51.008;13.658;2023-05-03T22:36:53;100690.13;;;6.99;100.00
64292;BME280;50628;51.008;13.658;2023-05-03T22:41:55;100693.69;;;7.13;100.00
64292;BME280;50628;51.008;13.658;2023-05-03T22:46:58;100694.06;;;7.06;100.00
64292;BME280;50628;51.008;13.658;2023-05-03T22:52:00;100687.75;;;7.11;100.00
64292;BME280;50628;51.008;13.658;2023-05-03T22:57:03;100686.53;;;7.19;100.00
64292;BME280;50628;51.008;13.658;2023-05-03T23:02:06;100685.53;;;7.04;100.00
64292;BME280;50628;51.008;13.658;2023-05-03T23:07:08;100681.53;;;6.98;100.00
64292;BME280;50628;51.008;13.658;2023-05-03T23:12:10;100680.91;;;6.93;100.00
64292;BME280;50628;51.008;13.658;2023-05-03T23:17:13;100689.97;;;6.67;100.00
64292;BME280;50628;51.008;13.658;2023-05-03T23:22:15;100684.13;;;6.63;100.00
64292;BME280;50628;51.008;13.658;2023-05-03T23:27:17;100682.78;;;6.55;100.00
64292;BME280;50628;51.008;13.658;2023-05-03T23:32:20;100681.94;;;6.37;100.00
64292;BME280;50628;51.008;13.658;2023-05-03T23:37:22;100681.41;;;6.30;100.00
64292;BME280;50628;51.008;13.658;2023-05-03T23:42:24;100675.69;;;6.23;100.00
64292;BME280;50628;51.008;13.658;2023-05-03T23:47:27;100675.47;;;6.28;100.00
64292;BME280;50628;51.008;13.658;2023-05-03T23:52:29;100664.44;;;6.24;100.00
64292;BME280;50628;51.008;13.658;2023-05-03T23:57:31;100665.81;;;5.95;100.00
